Time;durP1;ratioP1;P1;durP2;ratioP2;P2;SDS_P1;SDS_P2;PMS_P1;PMS_P2;Temp;Humidity;BMP_temperature;BMP_pressure;BME280_temperature;BME280_humidity;BME280_pressure;Samples;Min_cycle;Max_cycle;Signal;HPM_P1;HPM_P2
2021/11/04 00:00:33;;;;;;;19.67;12.45;;;7.60;99.90;;;;;;4995273;28;20392;-79
2021/11/04 00:02:59;;;;;;;17.27;10.27;;;7.70;99.90;;;;;;4995222;28;20018;-79
2021/11/04 00:05:25;;;;;;;18.48;14.80;;;7.60;99.90;;;;;;4995242;28;20101;-79
2021/11/04 00:07:54;;;;;;;18.35;12.80;;;7.60;99.90;;;;;;4995246;28;20101;-78
2021/11/04 00:10:20;;;;;;;18.98;12.60;;;7.60;99.90;;;;;;4995820;28;20097;-78
2021/11/04 00:12:47;;;;;;;16.67;13.10;;;7.70;99.90;;;;;;5005348;28;20029;-78
2021/11/04 00:15:14;;;;;;;17.60;12.93;;;7.70;99.90;;;;;;5015022;28;20026;-78
2021/11/04 00:17:41;;;;;;;17.98;11.23;;;7.80;99.90;;;;;;5014406;28;20110;-79
2021/11/04 00:20:09;;;;;;;12.82;10.00;;;7.80;99.90;;;;;;5014531;28;20029;-79
2021/11/04 00:22:35;;;;;;;16.25;11.40;;;7.80;99.90;;;;;;5014491;28;20050;-78
2021/11/04 00:25:01;;;;;;;18.30;11.18;;;7.80;99.90;;;;;;5014590;28;20489;-78
2021/11/04 00:27:27;;;;;;;14.05;10.77;;;7.70;99.90;;;;;;5014713;28;20105;-78
2021/11/04 00:29:52;;;;;;;17.63;10.60;;;7.70;99.90;;;;;;5014665;28;20026;-78
2021/11/04 00:32:18;;;;;;;14.43;10.65;;;7.70;99.90;;;;;;5014150;28;20375;-79
2021/11/04 00:34:44;;;;;;;17.10;11.20;;;7.80;99.90;;;;;;5014356;28;20033;-78
2021/11/04 00:37:10;;;;;;;16.45;11.15;;;7.70;99.90;;;;;;5014426;28;20021;-78
2021/11/04 00:39:36;;;;;;;15.75;10.65;;;7.70;99.90;;;;;;5014412;28;20096;-78
2021/11/04 00:42:02;;;;;;;12.98;10.50;;;7.70;99.90;;;;;;5014070;28;20025;-78
2021/11/04 00:44:28;;;;;;;14.45;11.27;;;7.70;99.90;;;;;;5014147;28;20022;-79
2021/11/04 00:46:54;;;;;;;15.48;11.18;;;7.80;99.90;;;;;;5014093;28;20493;-79
2021/11/04 00:49:19;;;;;;;17.42;10.77;;;7.70;99.90;;;;;;5005557;28;20112;-80
2021/11/04 00:51:45;;;;;;;12.93;10.73;;;7.80;99.90;;;;;;5009802;28;20576;-78
2021/11/04 00:54:11;;;;;;;13.32;9.25;;;7.70;99.90;;;;;;4991738;28;20033;-77
2021/11/04 00:56:37;;;;;;;12.65;10.70;;;7.80;99.90;;;;;;5013776;28;20037;-80
2021/11/04 00:59:03;;;;;;;15.85;11.50;;;7.80;99.90;;;;;;5012999;28;20037;-79
2021/11/04 01:01:29;;;;;;;15.23;11.05;;;7.80;99.90;;;;;;5000654;28;20018;-78
2021/11/04 01:03:55;;;;;;;13.68;11.93;;;7.80;99.90;;;;;;5014750;28;20028;-79
2021/11/04 01:06:22;;;;;;;17.27;11.32;;;7.80;99.90;;;;;;5009891;28;20029;-78
2021/11/04 01:08:49;;;;;;;14.73;11.00;;;7.90;99.90;;;;;;5013656;28;20025;-78
2021/11/04 01:11:15;;;;;;;15.63;12.38;;;7.90;99.90;;;;;;5013281;28;20145;-79
2021/11/04 01:13:42;;;;;;;17.02;12.43;;;7.90;99.90;;;;;;5013604;28;20030;-77
2021/11/04 01:16:08;;;;;;;15.20;11.87;;;7.90;99.90;;;;;;5013375;28;20475;-78
2021/11/04 01:18:34;;;;;;;16.77;11.57;;;8.00;99.90;;;;;;5013213;28;20294;-78
2021/11/04 01:21:00;;;;;;;15.57;10.82;;;8.00;99.90;;;;;;5013028;28;20022;-79
2021/11/04 01:23:26;;;;;;;16.90;13.05;;;8.00;99.90;;;;;;5012299;28;20398;-78
2021/11/04 01:25:52;;;;;;;16.20;12.50;;;7.90;99.90;;;;;;5008617;28;20462;-77
2021/11/04 01:28:18;;;;;;;19.00;13.20;;;7.90;99.90;;;;;;4995395;28;20021;-78
2021/11/04 01:30:44;;;;;;;18.45;12.93;;;7.90;99.90;;;;;;5013009;28;20029;-78
2021/11/04 01:33:11;;;;;;;18.98;12.65;;;7.90;99.90;;;;;;5013081;28;20022;-78
2021/11/04 01:35:37;;;;;;;19.48;12.00;;;7.90;99.90;;;;;;5013106;28;20022;-78
2021/11/04 01:38:05;;;;;;;20.40;14.18;;;7.90;99.90;;;;;;5013001;28;20043;-78
2021/11/04 01:40:31;;;;;;;;;;;7.90;99.90;;;;;;5013629;28;20066;-79
2021/11/04 01:42:58;;;;;;;18.08;12.75;;;7.90;99.90;;;;;;5013157;28;19906;-78
2021/11/04 01:45:24;;;;;;;14.60;12.10;;;7.90;99.90;;;;;;5013276;28;20105;-78
2021/11/04 01:47:51;;;;;;;18.38;13.30;;;7.90;99.90;;;;;;5013236;28;20334;-78
2021/11/04 01:50:19;;;;;;;18.75;12.95;;;7.90;99.90;;;;;;5013378;28;20026;-80
2021/11/04 01:52:46;;;;;;;22.77;13.65;;;7.90;99.90;;;;;;5013049;28;20044;-79
2021/11/04 01:55:18;;;;;;;19.73;14.65;;;7.90;99.90;;;;;;5012955;28;20056;-79
2021/11/04 01:57:44;;;;;;;21.52;14.60;;;7.90;99.90;;;;;;5012843;28;20026;-79
2021/11/04 02:00:12;;;;;;;17.33;12.77;;;7.90;99.90;;;;;;5012872;28;20033;-79
2021/11/04 02:02:43;;;;;;;;;;;7.90;99.90;;;;;;5013577;28;20030;-77
2021/11/04 02:05:13;;;;;;;19.98;13.52;;;8.00;99.90;;;;;;5013122;28;19905;-76
2021/11/04 02:07:58;;;;;;;17.38;12.55;;;8.00;99.90;;;;;;5007898;28;20026;-77
2021/11/04 02:10:47;;;;;;;17.80;15.27;;;8.00;99.90;;;;;;4998723;28;20022;-79
2021/11/04 02:13:30;;;;;;;19.75;11.25;;;8.00;99.90;;;;;;5016918;28;20100;-78
2021/11/04 02:15:59;;;;;;;17.75;12.68;;;8.10;99.90;;;;;;5017025;28;20025;-78
2021/11/04 02:18:29;;;;;;;19.85;15.40;;;8.10;99.90;;;;;;5016922;28;20043;-79
2021/11/04 02:20:55;;;;;;;17.30;12.98;;;8.10;99.90;;;;;;5016842;28;20029;-78
2021/11/04 02:23:31;;;;;;;18.75;15.05;;;8.10;99.90;;;;;;4995643;28;20500;-78
2021/11/04 02:25:59;;;;;;;16.60;12.50;;;8.20;99.90;;;;;;5007662;28;20048;-80
2021/11/04 02:28:25;;;;;;;19.05;13.57;;;8.20;99.90;;;;;;5014485;28;20419;-79
2021/11/04 02:30:51;;;;;;;17.55;14.23;;;8.20;99.90;;;;;;5010214;28;20108;-79
2021/11/04 02:33:20;;;;;;;14.63;11.43;;;8.20;99.90;;;;;;5016394;28;20028;-78
2021/11/04 02:35:51;;;;;;;19.23;12.18;;;8.30;99.90;;;;;;5008274;28;20101;-78
2021/11/04 02:38:19;;;;;;;15.98;12.00;;;8.30;99.90;;;;;;5016424;28;20038;-79
2021/11/04 02:40:46;;;;;;;;;;;8.30;99.90;;;;;;4999715;28;20439;-79
2021/11/04 02:43:16;;;;;;;17.23;12.18;;;8.30;99.90;;;;;;5015377;28;19905;-77
2021/11/04 02:45:42;;;;;;;20.63;14.98;;;8.30;99.90;;;;;;5017123;28;20036;-79
2021/11/04 02:48:09;;;;;;;20.17;15.32;;;8.30;99.90;;;;;;5016910;28;20022;-78
2021/11/04 02:50:35;;;;;;;18.55;12.10;;;8.30;99.90;;;;;;5017127;28;20024;-79
2021/11/04 02:53:02;;;;;;;21.00;15.63;;;8.30;99.90;;;;;;5017830;28;20041;-77
2021/11/04 02:55:36;;;;;;;23.88;14.82;;;8.30;99.90;;;;;;5016321;28;20046;-78
2021/11/04 02:58:11;;;;;;;17.73;13.70;;;8.40;99.90;;;;;;5016110;28;20033;-79
2021/11/04 03:00:40;;;;;;;20.02;15.50;;;8.40;99.90;;;;;;5015779;28;20022;-79
2021/11/04 03:03:06;;;;;;;23.30;15.27;;;8.50;99.90;;;;;;5016173;28;20156;-78
2021/11/04 03:05:32;;;;;;;19.75;13.75;;;8.50;99.90;;;;;;5015887;28;20026;-76
2021/11/04 03:07:58;;;;;;;20.10;14.07;;;8.40;99.90;;;;;;5016119;28;20447;-76
2021/11/04 03:10:24;;;;;;;21.60;15.07;;;8.40;99.90;;;;;;5017008;28;20045;-76
2021/11/04 03:12:51;;;;;;;20.75;14.57;;;8.40;99.90;;;;;;5016011;28;20029;-76
2021/11/04 03:15:21;;;;;;;24.33;16.10;;;8.50;99.90;;;;;;5016012;28;20021;-76
2021/11/04 03:17:49;;;;;;;22.35;17.25;;;8.50;99.90;;;;;;5015362;28;20390;-76
2021/11/04 03:20:19;;;;;;;20.55;15.32;;;8.60;99.90;;;;;;5014669;28;20387;-76
2021/11/04 03:22:46;;;;;;;18.65;14.48;;;8.60;99.90;;;;;;5015543;28;20029;-77
2021/11/04 03:25:15;;;;;;;21.40;15.18;;;8.60;99.90;;;;;;5005792;28;20034;-75
2021/11/04 03:27:43;;;;;;;21.42;15.77;;;8.70;99.90;;;;;;5016133;28;20146;-77
2021/11/04 03:30:12;;;;;;;18.33;13.63;;;8.70;99.90;;;;;;5015268;28;20022;-77
2021/11/04 03:32:39;;;;;;;21.35;16.52;;;8.70;99.90;;;;;;5015141;28;20065;-76
2021/11/04 03:35:09;;;;;;;;;;;8.70;99.90;;;;;;5015847;28;20076;-76
2021/11/04 03:37:39;;;;;;;21.95;14.07;;;8.70;99.90;;;;;;5015062;28;19960;-76
2021/11/04 03:40:06;;;;;;;19.48;13.02;;;8.70;99.90;;;;;;5015558;28;20030;-76
2021/11/04 03:42:32;;;;;;;;;;;8.70;99.90;;;;;;5015712;28;20391;-76
2021/11/04 03:45:01;;;;;;;16.02;12.55;;;8.80;99.90;;;;;;5015076;28;19911;-77
2021/11/04 03:47:30;;;;;;;17.65;14.63;;;8.80;99.90;;;;;;5015378;28;20029;-76
2021/11/04 03:49:57;;;;;;;21.92;16.02;;;8.80;99.90;;;;;;5015362;28;20029;-76
2021/11/04 03:52:23;;;;;;;18.85;14.02;;;8.80;99.90;;;;;;5015270;28;20382;-78
2021/11/04 03:54:50;;;;;;;16.73;12.73;;;8.80;99.90;;;;;;5004716;28;20089;-80
2021/11/04 03:57:18;;;;;;;17.23;14.55;;;8.70;99.90;;;;;;5000235;28;20038;-78
2021/11/04 03:59:46;;;;;;;18.00;13.88;;;8.70;99.90;;;;;;5014366;28;20142;-78
2021/11/04 04:02:12;;;;;;;19.65;12.82;;;8.70;99.90;;;;;;5010133;28;20391;-78
2021/11/04 04:04:41;;;;;;;14.32;11.95;;;8.70;99.90;;;;;;5014938;28;20434;-79
2021/11/04 04:07:07;;;;;;;17.23;12.13;;;8.70;99.90;;;;;;5014603;28;20026;-78
2021/11/04 04:09:32;;;;;;;17.95;12.95;;;8.60;99.90;;;;;;5014780;28;20033;-77
2021/11/04 04:11:58;;;;;;;13.02;10.55;;;8.70;99.90;;;;;;5014691;28;20062;-79
2021/11/04 04:14:24;;;;;;;15.43;11.35;;;8.60;99.90;;;;;;5014536;28;20025;-79
2021/11/04 04:16:50;;;;;;;17.05;10.75;;;8.60;99.90;;;;;;5014513;28;20442;-79
2021/11/04 04:19:18;;;;;;;14.00;10.52;;;8.70;99.90;;;;;;5014217;28;20041;-78
2021/11/04 04:21:44;;;;;;;14.13;10.95;;;8.60;99.90;;;;;;4996924;28;20029;-79
2021/11/04 04:24:10;;;;;;;13.70;10.52;;;8.70;99.90;;;;;;4996754;28;20137;-80
2021/11/04 04:26:36;;;;;;;13.65;9.60;;;8.70;99.90;;;;;;5013985;28;20029;-78
2021/11/04 04:29:02;;;;;;;18.45;12.45;;;8.70;99.90;;;;;;5014472;28;20040;-77
2021/11/04 04:31:28;;;;;;;16.90;11.52;;;8.70;99.90;;;;;;5013923;28;20030;-79
2021/11/04 04:33:54;;;;;;;17.13;10.95;;;8.80;99.90;;;;;;5014401;28;20418;-78
2021/11/04 04:36:19;;;;;;;18.83;11.23;;;8.80;99.90;;;;;;5014264;28;20018;-79
2021/11/04 04:38:45;;;;;;;19.13;12.38;;;8.80;99.90;;;;;;5006982;28;20089;-79
2021/11/04 04:41:11;;;;;;;13.40;10.48;;;8.80;99.90;;;;;;5004625;28;20105;-78
2021/11/04 04:43:37;;;;;;;14.45;11.45;;;8.80;99.90;;;;;;5009446;28;20029;-78
2021/11/04 04:46:03;;;;;;;16.38;11.98;;;8.80;99.90;;;;;;5013941;28;20021;-78
2021/11/04 04:48:29;;;;;;;15.05;10.90;;;8.80;99.90;;;;;;5014360;28;20022;-79
2021/11/04 04:50:54;;;;;;;15.25;11.48;;;8.80;99.90;;;;;;5013866;28;20022;-77
2021/11/04 04:53:20;;;;;;;17.58;10.90;;;8.80;99.90;;;;;;5015633;28;20029;-78
2021/11/04 04:55:46;;;;;;;19.15;13.18;;;8.90;99.90;;;;;;5013875;28;20042;-78
2021/11/04 04:58:12;;;;;;;15.07;11.30;;;8.90;99.90;;;;;;5013725;28;20516;-78
2021/11/04 05:00:38;;;;;;;16.92;12.13;;;8.90;99.90;;;;;;5013578;28;20114;-77
2021/11/04 05:03:05;;;;;;;18.55;12.55;;;8.90;99.90;;;;;;5013488;28;20034;-78
2021/11/04 05:05:31;;;;;;;17.25;12.05;;;9.00;99.90;;;;;;5013533;28;20026;-77
2021/11/04 05:07:57;;;;;;;15.48;10.77;;;9.00;99.90;;;;;;5013540;28;20494;-78
2021/11/04 05:10:23;;;;;;;18.55;11.05;;;9.00;99.90;;;;;;5013797;28;20033;-79
2021/11/04 05:12:49;;;;;;;17.98;12.73;;;9.10;99.90;;;;;;5013723;28;20105;-78
2021/11/04 05:15:15;;;;;;;15.88;11.05;;;9.10;99.90;;;;;;5013553;28;20072;-76
2021/11/04 05:17:41;;;;;;;16.25;11.93;;;9.10;99.90;;;;;;4995709;28;20026;-78
2021/11/04 05:20:09;;;;;;;14.98;12.38;;;9.10;99.90;;;;;;5013168;28;20109;-78
2021/11/04 05:22:35;;;;;;;15.50;10.98;;;9.10;99.90;;;;;;5013201;28;20024;-80
2021/11/04 05:25:01;;;;;;;18.92;12.43;;;9.20;99.90;;;;;;4992042;28;20030;-79
2021/11/04 05:27:29;;;;;;;18.10;12.52;;;9.20;99.90;;;;;;4993370;28;20029;-77
2021/11/04 05:29:55;;;;;;;;;;;9.20;99.90;;;;;;4994265;28;20027;-78
2021/11/04 05:32:22;;;;;;;17.92;12.85;;;9.20;99.90;;;;;;4993533;28;19953;-78
2021/11/04 05:34:48;;;;;;;16.30;12.45;;;9.20;99.90;;;;;;4993426;28;20018;-77
2021/11/04 05:37:14;;;;;;;19.88;13.10;;;9.30;99.90;;;;;;5010807;28;20048;-77
2021/11/04 05:39:40;;;;;;;19.55;13.70;;;9.30;99.90;;;;;;5012906;28;20036;-77
2021/11/04 05:42:07;;;;;;;16.48;12.45;;;9.30;99.90;;;;;;5013160;28;20486;-78
2021/11/04 05:44:35;;;;;;;19.80;13.85;;;9.30;99.90;;;;;;5012453;28;20022;-79
2021/11/04 05:47:02;;;;;;;16.67;13.48;;;9.40;99.90;;;;;;5012925;28;20058;-77
2021/11/04 05:49:28;;;;;;;20.83;14.10;;;9.40;99.90;;;;;;5012985;28;20077;-78
2021/11/04 05:51:54;;;;;;;20.90;13.95;;;9.40;99.90;;;;;;4994984;28;20267;-77
2021/11/04 05:54:20;;;;;;;22.50;12.48;;;9.40;99.90;;;;;;5012916;28;20101;-79
2021/11/04 05:56:46;;;;;;;16.27;13.25;;;9.40;99.90;;;;;;5012513;28;20155;-77
2021/11/04 05:59:11;;;;;;;21.08;13.93;;;9.50;99.90;;;;;;5012757;28;20153;-78
2021/11/04 06:01:37;;;;;;;20.40;14.07;;;9.50;99.90;;;;;;5012986;28;20026;-78
2021/11/04 06:04:04;;;;;;;18.00;14.18;;;9.50;99.90;;;;;;5012831;28;20085;-78
2021/11/04 06:06:29;;;;;;;24.13;14.18;;;9.50;99.90;;;;;;5012827;28;20022;-78
2021/11/04 06:08:55;;;;;;;19.48;12.38;;;9.60;99.90;;;;;;5012742;28;20034;-78
2021/11/04 06:11:21;;;;;;;17.98;12.80;;;9.60;99.90;;;;;;5012892;28;20416;-79
2021/11/04 06:13:47;;;;;;;19.52;14.98;;;9.60;99.90;;;;;;4995022;28;20152;-78
2021/11/04 06:16:16;;;;;;;19.05;13.88;;;9.60;99.90;;;;;;5012734;28;20076;-78
2021/11/04 06:18:42;;;;;;;17.30;14.13;;;9.70;99.90;;;;;;5012819;28;20044;-78
2021/11/04 06:21:12;;;;;;;20.30;15.20;;;9.70;99.90;;;;;;5012838;28;20018;-77
2021/11/04 06:23:38;;;;;;;17.58;13.02;;;9.70;99.70;;;;;;5013649;28;20054;-79
2021/11/04 06:26:04;;;;;;;20.60;13.95;;;9.70;99.50;;;;;;5013067;28;20057;-78
2021/11/04 06:28:29;;;;;;;27.55;14.60;;;9.70;99.60;;;;;;5012726;28;20144;-79
2021/11/04 06:30:55;;;;;;;20.20;13.18;;;9.70;99.30;;;;;;5012975;28;20030;-78
2021/11/04 06:33:21;;;;;;;21.85;15.85;;;9.70;99.40;;;;;;5012709;28;20018;-78
2021/11/04 06:35:47;;;;;;;21.40;12.82;;;9.70;99.30;;;;;;5014598;28;20085;-78
2021/11/04 06:38:13;;;;;;;18.65;13.68;;;9.70;99.30;;;;;;5032505;28;20080;-78
2021/11/04 06:40:38;;;;;;;19.45;14.85;;;9.70;98.90;;;;;;5031987;28;20025;-80
2021/11/04 06:43:04;;;;;;;17.25;13.00;;;9.80;98.90;;;;;;5032152;28;20483;-79
2021/11/04 06:45:33;;;;;;;19.83;14.77;;;9.80;98.80;;;;;;5032206;28;20028;-79
2021/11/04 06:48:01;;;;;;;20.35;14.93;;;9.80;98.80;;;;;;5032333;28;20026;-78
2021/11/04 06:50:33;;;;;;;17.42;13.43;;;9.80;98.40;;;;;;5012601;28;20435;-77
2021/11/04 06:53:07;;;;;;;20.23;13.70;;;9.80;98.30;;;;;;4994443;28;20033;-77
2021/11/04 06:55:35;;;;;;;17.17;14.88;;;9.80;98.20;;;;;;5012640;28;20050;-78
2021/11/04 06:58:03;;;;;;;22.45;14.55;;;9.70;98.20;;;;;;5015908;28;20108;-78
2021/11/04 07:00:30;;;;;;;20.08;14.52;;;9.70;97.90;;;;;;5015936;28;20105;-79
2021/11/04 07:02:59;;;;;;;;;;;9.70;98.20;;;;;;5016256;28;20022;-78
2021/11/04 07:05:25;;;;;;;18.20;12.98;;;9.80;98.40;;;;;;5015823;28;19952;-78
2021/11/04 07:07:53;;;;;;;19.98;13.10;;;9.70;98.10;;;;;;5015799;28;20081;-77
2021/11/04 07:10:22;;;;;;;25.55;14.57;;;9.70;98.10;;;;;;5015674;28;20030;-78
2021/11/04 07:12:50;;;;;;;18.08;14.35;;;9.80;97.90;;;;;;4987074;28;20125;-80
2021/11/04 07:15:18;;;;;;;25.63;15.98;;;9.90;97.90;;;;;;5011598;28;20048;-79
2021/11/04 07:17:45;;;;;;;20.85;13.02;;;9.90;97.90;;;;;;4997990;28;20028;-78
2021/11/04 07:20:12;;;;;;;18.05;13.00;;;9.90;97.70;;;;;;5015683;28;20036;-79
2021/11/04 07:22:47;;;;;;;21.45;14.15;;;10.00;97.50;;;;;;4997654;28;20105;-78
2021/11/04 07:25:15;;;;;;;17.77;13.52;;;10.00;97.40;;;;;;4986093;28;20030;-78
2021/11/04 07:28:06;;;;;;;20.30;14.60;;;10.00;97.50;;;;;;4993536;28;20058;-79
2021/11/04 07:30:32;;;;;;;19.90;14.50;;;10.00;97.20;;;;;;4978168;28;20022;-78
2021/11/04 07:33:03;;;;;;;17.88;14.90;;;10.00;97.20;;;;;;4995552;28;20026;-79
2021/11/04 07:35:34;;;;;;;17.73;13.57;;;10.10;97.20;;;;;;4995137;28;20056;-79
2021/11/04 07:38:04;;;;;;;24.23;16.00;;;10.00;96.90;;;;;;4993627;28;20046;-78
2021/11/04 07:40:30;;;;;;;19.70;14.95;;;10.00;97.00;;;;;;4995163;28;20025;-78
2021/11/04 07:42:57;;;;;;;17.85;12.68;;;10.00;96.90;;;;;;4995507;28;20494;-77
2021/11/04 07:45:25;;;;;;;22.20;14.83;;;10.00;96.80;;;;;;4995318;28;20445;-78
2021/11/04 07:47:51;;;;;;;20.85;13.93;;;10.00;97.00;;;;;;4995378;28;20268;-78
2021/11/04 07:50:19;;;;;;;14.95;10.57;;;10.10;96.70;;;;;;4995444;28;20525;-79
2021/11/04 07:52:47;;;;;;;20.08;14.32;;;10.20;96.60;;;;;;4995037;28;20023;-78
2021/11/04 07:55:13;;;;;;;22.05;14.40;;;10.20;96.20;;;;;;4995190;28;20113;-78
2021/11/04 07:57:40;;;;;;;19.27;12.95;;;10.20;96.10;;;;;;5010335;28;20045;-78
2021/11/04 08:00:12;;;;;;;19.90;14.57;;;10.20;96.30;;;;;;5014709;28;20172;-77
2021/11/04 08:02:40;;;;;;;18.92;14.88;;;10.10;96.30;;;;;;5014866;28;20097;-78
2021/11/04 08:05:08;;;;;;;16.70;14.00;;;10.10;96.30;;;;;;5006013;28;20041;-78
2021/11/04 08:07:35;;;;;;;;;;;10.10;96.30;;;;;;5030525;28;20100;-79
2021/11/04 08:10:02;;;;;;;;;;;10.00;96.30;;;;;;5018567;28;20266;-78
2021/11/04 08:12:28;;;;;;;20.15;13.35;;;9.90;96.10;;;;;;5021179;28;19917;-77
2021/11/04 08:14:53;;;;;;;14.32;10.88;;;9.80;95.80;;;;;;5013953;28;20328;-79
2021/11/04 08:17:19;;;;;;;18.42;13.13;;;9.80;96.00;;;;;;5013884;28;20105;-77
2021/11/04 08:19:45;;;;;;;17.70;12.35;;;9.80;96.20;;;;;;5013548;28;20046;-80
2021/11/04 08:22:11;;;;;;;18.58;12.55;;;9.80;96.10;;;;;;5012983;28;20387;-79
2021/11/04 08:24:37;;;;;;;19.48;12.75;;;9.80;96.00;;;;;;5014227;28;20029;-79
2021/11/04 08:27:03;;;;;;;15.90;12.15;;;9.90;96.00;;;;;;5022389;28;20026;-79
2021/11/04 08:29:28;;;;;;;20.75;12.68;;;9.90;95.70;;;;;;4997739;28;20076;-78
2021/11/04 08:31:54;;;;;;;15.88;11.77;;;10.00;95.60;;;;;;5018070;28;20026;-79
2021/11/04 08:34:21;;;;;;;16.92;12.48;;;10.10;95.40;;;;;;5013476;28;20034;-80
2021/11/04 08:36:47;;;;;;;15.60;12.40;;;10.20;95.30;;;;;;5015912;28;20053;-78
2021/11/04 08:39:14;;;;;;;13.95;10.98;;;10.40;95.10;;;;;;5013697;28;20080;-81
2021/11/04 08:41:43;;;;;;;17.80;12.70;;;10.60;94.60;;;;;;5013968;28;20017;-79
2021/11/04 08:44:08;;;;;;;16.92;12.27;;;10.80;95.10;;;;;;5013780;28;20518;-84
2021/11/04 08:46:35;;;;;;;16.75;12.55;;;11.10;94.30;;;;;;5013661;28;20086;-87
2021/11/04 08:49:04;;;;;;;15.93;12.38;;;11.20;93.60;;;;;;5016372;28;20022;-80
2021/11/04 08:51:30;;;;;;;15.45;11.30;;;11.40;93.10;;;;;;5013031;28;20438;-80
2021/11/04 08:54:00;;;;;;;16.83;11.23;;;11.50;92.90;;;;;;5013363;28;20030;-79
2021/11/04 08:56:26;;;;;;;14.52;12.25;;;11.40;92.20;;;;;;5013838;28;20132;-78
2021/11/04 08:58:52;;;;;;;15.10;12.63;;;11.50;92.40;;;;;;5014210;28;20034;-80
2021/11/04 09:01:19;;;;;;;16.17;12.75;;;11.80;92.20;;;;;;5013606;28;20022;-80
2021/11/04 09:03:44;;;;;;;16.50;10.90;;;12.10;91.70;;;;;;5013667;28;20025;-77
2021/11/04 09:06:10;;;;;;;10.75;9.57;;;12.00;90.80;;;;;;5013712;28;20034;-79
2021/11/04 09:08:36;;;;;;;13.85;10.27;;;12.10;90.80;;;;;;5014302;28;20028;-78
2021/11/04 09:11:02;;;;;;;12.63;9.70;;;12.80;90.80;;;;;;5013451;28;20022;-78
2021/11/04 09:13:28;;;;;;;12.82;9.48;;;13.40;87.00;;;;;;5013697;28;20485;-79
2021/11/04 09:15:54;;;;;;;11.52;8.73;;;13.50;84.00;;;;;;5013330;28;20022;-78
2021/11/04 09:18:20;;;;;;;11.93;9.73;;;13.20;83.60;;;;;;5012755;28;20438;-80
2021/11/04 09:20:46;;;;;;;12.52;10.07;;;12.90;84.00;;;;;;5013087;28;20068;-79
2021/11/04 09:23:12;;;;;;;13.40;9.63;;;12.60;84.30;;;;;;5013292;28;20030;-79
2021/11/04 09:25:38;;;;;;;14.20;10.63;;;12.40;85.40;;;;;;5013035;28;20022;-79
2021/11/04 09:28:05;;;;;;;16.65;10.32;;;12.40;86.00;;;;;;5013215;28;20022;-82
2021/11/04 09:30:31;;;;;;;14.55;8.82;;;12.30;85.60;;;;;;5013095;28;20097;-79
2021/11/04 09:32:57;;;;;;;9.77;7.63;;;12.20;85.70;;;;;;5012835;28;20026;-80
2021/11/04 09:35:24;;;;;;;13.18;9.82;;;12.10;86.00;;;;;;5013098;28;20022;-78
2021/11/04 09:37:50;;;;;;;11.65;9.32;;;12.10;86.40;;;;;;5012624;28;20018;-79
2021/11/04 09:40:17;;;;;;;11.00;7.97;;;12.20;85.70;;;;;;5012748;28;20538;-78
2021/11/04 09:42:49;;;;;;;11.45;8.40;;;12.30;86.40;;;;;;5012973;28;20017;-83
2021/11/04 09:45:15;;;;;;;12.00;8.73;;;12.70;85.90;;;;;;5012729;28;20123;-78
2021/11/04 09:47:41;;;;;;;10.77;8.55;;;13.50;84.10;;;;;;5012601;28;20022;-78
2021/11/04 09:50:13;;;;;;;10.85;8.55;;;14.10;80.40;;;;;;5012665;28;20026;-79
2021/11/04 09:52:41;;;;;;;13.88;9.10;;;14.70;77.60;;;;;;5012744;28;20021;-79
2021/11/04 09:55:11;;;;;;;11.07;8.32;;;14.60;75.70;;;;;;5012305;28;20029;-77
2021/11/04 09:57:41;;;;;;;13.05;9.00;;;14.20;75.80;;;;;;5012470;28;20408;-76
2021/11/04 10:00:08;;;;;;;10.73;8.05;;;13.70;77.20;;;;;;5012574;28;20029;-77
2021/11/04 10:02:34;;;;;;;12.40;8.88;;;13.10;78.60;;;;;;5012629;28;20018;-78
2021/11/04 10:05:07;;;;;;;15.68;9.40;;;12.70;80.10;;;;;;4994659;28;20073;-79
2021/11/04 10:07:42;;;;;;;10.40;7.18;;;12.30;81.50;;;;;;5012558;28;20022;-78
2021/11/04 10:10:08;;;;;;;17.95;9.45;;;12.00;82.50;;;;;;5012562;28;20101;-77
2021/11/04 10:12:34;;;;;;;9.45;8.35;;;11.70;83.70;;;;;;5011687;28;20457;-76
2021/11/04 10:15:15;;;;;;;14.50;9.02;;;11.60;84.20;;;;;;5012088;28;20065;-78
2021/11/04 10:17:41;;;;;;;9.43;8.05;;;11.50;85.00;;;;;;4995901;28;20420;-77
2021/11/04 10:20:15;;;;;;;14.98;8.82;;;11.50;85.50;;;;;;4994660;28;20077;-77
2021/11/04 10:22:41;;;;;;;12.32;8.40;;;11.30;85.70;;;;;;5010754;28;20029;-82
2021/11/04 10:25:21;;;;;;;11.88;8.32;;;11.30;86.10;;;;;;5014838;28;20441;-83
2021/11/04 10:27:47;;;;;;;11.20;8.88;;;11.50;86.90;;;;;;5012748;28;20387;-83
2021/11/04 10:30:40;;;;;;;8.57;7.57;;;11.50;86.30;;;;;;5013723;28;20030;-80
2021/11/04 10:33:24;;;;;;;12.77;8.52;;;11.40;86.30;;;;;;5016691;28;20026;-82
2021/11/04 10:36:18;;;;;;;9.73;7.72;;;11.20;87.20;;;;;;5016491;28;20157;-79
2021/11/04 10:38:49;;;;;;;10.98;8.30;;;11.20;87.40;;;;;;5007294;28;20104;-77
2021/11/04 10:41:21;;;;;;;15.30;7.00;;;11.20;87.30;;;;;;5014450;28;20026;-78
2021/11/04 10:43:49;;;;;;;8.63;6.93;;;11.30;87.20;;;;;;5015718;28;20486;-79
2021/11/04 10:46:16;;;;;;;11.23;6.78;;;11.40;86.40;;;;;;5016129;28;20037;-79
2021/11/04 10:48:56;;;;;;;9.63;7.15;;;11.40;85.60;;;;;;5015480;28;20390;-78
2021/11/04 10:51:22;;;;;;;7.00;5.78;;;11.30;85.30;;;;;;5015972;28;20074;-80
2021/11/04 10:54:00;;;;;;;10.90;7.47;;;11.20;85.50;;;;;;5015605;28;20494;-77
2021/11/04 10:56:27;;;;;;;12.73;6.47;;;11.10;86.10;;;;;;5015604;28;20092;-78
2021/11/04 10:59:09;;;;;;;10.57;5.72;;;11.00;86.00;;;;;;5015525;28;20034;-78
2021/11/04 11:01:37;;;;;;;8.52;5.65;;;11.00;85.80;;;;;;5016762;28;20471;-78
2021/11/04 11:04:07;;;;;;;10.07;6.45;;;11.00;86.40;;;;;;5015679;28;20025;-79
2021/11/04 11:06:36;;;;;;;7.72;5.63;;;10.90;86.50;;;;;;5015479;28;20053;-77
2021/11/04 11:09:06;;;;;;;10.73;7.00;;;10.90;86.40;;;;;;5015555;28;20025;-78
2021/11/04 11:11:39;;;;;;;7.32;5.45;;;10.80;86.40;;;;;;5015775;28;20018;-77
2021/11/04 11:14:05;;;;;;;8.90;6.20;;;10.80;86.60;;;;;;5010866;28;20026;-76
2021/11/04 11:16:34;;;;;;;9.18;6.32;;;10.80;86.60;;;;;;5006138;28;20464;-78
2021/11/04 11:19:00;;;;;;;9.70;6.45;;;10.80;86.90;;;;;;5014886;28;20089;-77
2021/11/04 11:21:42;;;;;;;10.15;6.00;;;10.80;87.10;;;;;;5021298;28;20030;-77
2021/11/04 11:24:13;;;;;;;12.63;6.88;;;10.90;86.90;;;;;;5018845;28;20026;-79
2021/11/04 11:26:42;;;;;;;15.57;7.15;;;11.00;86.90;;;;;;5016216;28;20533;-77
2021/11/04 11:29:09;;;;;;;10.48;7.78;;;11.20;86.50;;;;;;5014695;28;20036;-78
2021/11/04 11:31:56;;;;;;;11.55;6.90;;;11.20;86.10;;;;;;5015388;28;20018;-79
2021/11/04 11:34:23;;;;;;;10.95;7.53;;;11.30;86.10;;;;;;5016572;28;20017;-78
2021/11/04 11:37:09;;;;;;;;;;;11.30;86.30;;;;;;5015539;28;20590;-79
2021/11/04 11:39:42;;;;;;;8.32;5.80;;;11.20;86.60;;;;;;5015170;28;19924;-78
2021/11/04 11:42:11;;;;;;;14.00;7.40;;;11.10;86.70;;;;;;5013827;28;20029;-79
2021/11/04 11:44:44;;;;;;;11.75;7.68;;;11.10;86.90;;;;;;5013706;28;20045;-78
2021/11/04 11:47:32;;;;;;;11.20;6.63;;;11.20;86.70;;;;;;5017439;28;20041;-77
2021/11/04 11:50:25;;;;;;;11.00;6.38;;;11.20;85.90;;;;;;5014625;28;20018;-78
2021/11/04 11:52:56;;;;;;;11.20;6.13;;;11.20;85.80;;;;;;5014192;28;20040;-79
2021/11/04 11:55:43;;;;;;;8.93;5.97;;;11.10;85.80;;;;;;5014181;28;20033;-77
2021/11/04 11:58:17;;;;;;;13.93;5.53;;;11.10;85.30;;;;;;5014178;28;20070;-79
2021/11/04 12:00:54;;;;;;;8.95;6.40;;;11.00;85.10;;;;;;5015275;28;20033;-79
2021/11/04 12:03:32;;;;;;;9.80;5.28;;;11.00;85.30;;;;;;5015951;28;20113;-78
2021/11/04 12:06:11;;;;;;;7.15;6.13;;;11.00;85.80;;;;;;5013579;28;20026;-80
2021/11/04 12:08:39;;;;;;;13.35;7.63;;;10.90;86.10;;;;;;5014554;28;20353;-80
2021/11/04 12:11:09;;;;;;;12.65;7.05;;;10.90;87.40;;;;;;5014111;28;20073;-79
2021/11/04 12:13:43;;;;;;;13.15;7.50;;;10.90;87.40;;;;;;5015782;28;20502;-77
2021/11/04 12:16:15;;;;;;;12.65;8.07;;;10.80;88.10;;;;;;4990811;28;20118;-78
2021/11/04 12:19:06;;;;;;;10.95;7.28;;;10.80;88.30;;;;;;4994826;28;20045;-79
2021/11/04 12:21:35;;;;;;;11.82;7.18;;;10.80;88.70;;;;;;5001853;28;20109;-79
2021/11/04 12:24:06;;;;;;;9.20;7.47;;;10.80;88.80;;;;;;5014435;28;20034;-77
2021/11/04 12:26:41;;;;;;;11.73;6.95;;;10.80;88.90;;;;;;5014170;28;20030;-79
2021/11/04 12:29:10;;;;;;;9.40;7.53;;;10.90;88.70;;;;;;5014399;28;20580;-79
2021/11/04 12:31:42;;;;;;;14.32;7.63;;;10.90;88.70;;;;;;5014098;28;20018;-78
2021/11/04 12:34:18;;;;;;;14.60;7.88;;;10.90;89.00;;;;;;5014203;28;20033;-82
2021/11/04 12:36:44;;;;;;;8.68;6.78;;;10.90;89.00;;;;;;5013993;28;20018;-80
2021/11/04 12:39:27;;;;;;;7.60;6.25;;;10.90;88.70;;;;;;5014118;28;20033;-79
2021/11/04 12:41:55;;;;;;;9.38;6.90;;;10.90;88.30;;;;;;5014119;28;20071;-81
2021/11/04 12:44:23;;;;;;;12.05;6.13;;;10.80;88.30;;;;;;5013920;28;20049;-80
2021/11/04 12:46:49;;;;;;;8.30;6.03;;;10.80;87.70;;;;;;5013965;28;20029;-84